createdAt,value
2022-09-13T00:01:13.053Z,13.8
2022-09-13T00:03:11.706Z,13.9
2022-09-13T00:05:11.632Z,13.7
2022-09-13T00:07:11.425Z,13.4
2022-09-13T00:09:11.872Z,13.2
2022-09-13T00:11:11.633Z,13.2
2022-09-13T00:13:11.512Z,13.1
2022-09-13T00:15:12.232Z,13.6
2022-09-13T00:17:12.185Z,13.9
2022-09-13T00:19:11.439Z,13.7
2022-09-13T00:21:11.800Z,13.8
2022-09-13T00:23:12.121Z,13.6
2022-09-13T00:25:11.888Z,13.8
2022-09-13T00:27:11.702Z,13.9
2022-09-13T00:29:12.369Z,13.6
2022-09-13T00:31:11.524Z,13.6
2022-09-13T00:33:12.503Z,13.5
2022-09-13T00:37:11.554Z,13.3
2022-09-13T00:39:11.670Z,13.5
2022-09-13T00:41:12.108Z,13.4
2022-09-13T00:43:11.432Z,13.5
2022-09-13T00:45:11.672Z,13.7
2022-09-13T00:47:11.765Z,13.7
2022-09-13T00:49:14.611Z,13.8
2022-09-13T00:51:11.780Z,13.8
2022-09-13T00:55:11.943Z,13.5
2022-09-13T00:57:11.782Z,13.5
2022-09-13T00:59:12.395Z,13.4
2022-09-13T01:01:11.616Z,13.3
2022-09-13T01:03:11.703Z,13.4
2022-09-13T01:05:11.800Z,13.2
2022-09-13T01:07:12.335Z,12.9
2022-09-13T01:09:12.134Z,12.8
2022-09-13T01:11:11.690Z,12.6
2022-09-13T01:13:11.526Z,12.5
2022-09-13T01:17:11.642Z,12.3
2022-09-13T01:19:11.596Z,12.3
2022-09-13T01:21:11.765Z,12.3
2022-09-13T01:23:11.760Z,12.2
2022-09-13T01:25:14.316Z,12.1
2022-09-13T01:27:11.685Z,12.1
2022-09-13T01:29:11.698Z,12.1
2022-09-13T01:31:11.624Z,12.2
2022-09-13T01:33:12.129Z,12.2
2022-09-13T01:35:12.034Z,12.3
2022-09-13T01:37:11.470Z,12.6
2022-09-13T01:39:11.680Z,12.5
2022-09-13T01:41:11.733Z,12.5
2022-09-13T01:43:11.548Z,12.6
2022-09-13T01:45:12.112Z,12.8
2022-09-13T01:47:12.350Z,12.5
2022-09-13T01:49:12.119Z,12.5
2022-09-13T01:51:11.747Z,12.5
2022-09-13T01:53:11.633Z,12.6
2022-09-13T01:55:11.843Z,12.6
2022-09-13T01:57:11.768Z,12.4
2022-09-13T01:59:12.105Z,12.2
2022-09-13T02:03:11.782Z,11.9
2022-09-13T02:05:11.749Z,11.9
2022-09-13T02:07:11.566Z,11.9
2022-09-13T02:09:11.786Z,11.8
2022-09-13T02:11:12.486Z,11.8
2022-09-13T02:13:11.462Z,11.7
2022-09-13T02:15:12.163Z,11.9
2022-09-13T02:17:11.650Z,11.8
2022-09-13T02:19:11.504Z,11.6
2022-09-13T02:21:13.068Z,11.5
2022-09-13T02:23:11.652Z,11.5
2022-09-13T02:25:11.558Z,11.5
2022-09-13T02:27:11.686Z,11.5
2022-09-13T02:29:11.741Z,12.2
2022-09-13T02:31:12.021Z,12.1
2022-09-13T02:33:11.794Z,11.9
2022-09-13T02:35:11.740Z,11.7
2022-09-13T02:39:11.776Z,11.7
2022-09-13T02:41:11.762Z,12
2022-09-13T02:43:11.450Z,11.7
2022-09-13T02:45:11.778Z,11.7
2022-09-13T02:47:11.727Z,11.6
2022-09-13T02:49:12.942Z,11.4
2022-09-13T02:51:11.697Z,12.1
2022-09-13T02:53:11.749Z,11.9
2022-09-13T02:55:11.462Z,12
2022-09-13T02:57:11.761Z,11.7
2022-09-13T02:59:11.748Z,11.7
2022-09-13T03:01:11.505Z,12.2
2022-09-13T03:03:12.396Z,11.7
2022-09-13T03:05:12.483Z,11.6
2022-09-13T03:07:11.541Z,11.6
2022-09-13T03:09:11.820Z,11.6
2022-09-13T03:11:11.735Z,11.4
2022-09-13T03:13:11.540Z,11.4
2022-09-13T03:15:11.805Z,11.5
2022-09-13T03:17:11.775Z,11.5
2022-09-13T03:19:13.373Z,11.5
2022-09-13T03:21:11.707Z,11.5
2022-09-13T03:23:11.647Z,11.8
2022-09-13T03:25:11.854Z,11.7
2022-09-13T03:27:11.799Z,11.8
2022-09-13T03:29:11.859Z,11.7
2022-09-13T03:31:11.907Z,11.9
2022-09-13T03:33:11.809Z,11.9
2022-09-13T03:35:11.739Z,11.6
2022-09-13T03:37:11.995Z,11.6
2022-09-13T03:39:15.044Z,11.7
2022-09-13T03:41:11.734Z,11.8
2022-09-13T03:43:11.998Z,11.9
2022-09-13T03:45:11.915Z,11.9
2022-09-13T03:47:11.758Z,11.6
2022-09-13T03:51:11.818Z,11.4
2022-09-13T03:53:12.113Z,11.8
2022-09-13T03:55:11.518Z,12
2022-09-13T03:57:12.499Z,12.1
2022-09-13T03:59:11.989Z,12.2
2022-09-13T04:01:11.512Z,11.7
2022-09-13T04:03:12.215Z,12.2
2022-09-13T04:05:12.193Z,11.6
2022-09-13T04:07:11.473Z,11.7
2022-09-13T04:09:11.820Z,11.4
2022-09-13T04:11:11.760Z,11.3
2022-09-13T04:13:11.803Z,11.5
2022-09-13T04:15:12.234Z,11.5
2022-09-13T04:17:12.111Z,11.5
2022-09-13T04:19:11.573Z,11.5
2022-09-13T04:21:11.857Z,11.2
2022-09-13T04:23:14.708Z,11.3
2022-09-13T04:25:11.469Z,11.1
2022-09-13T04:27:11.722Z,11
2022-09-13T04:29:11.659Z,11.1
2022-09-13T04:31:11.511Z,11.1
2022-09-13T04:33:11.725Z,11.2
2022-09-13T04:35:12.124Z,11.6
2022-09-13T04:39:11.796Z,11.6
2022-09-13T04:43:11.542Z,12.1
2022-09-13T04:45:11.790Z,11.3
2022-09-13T04:49:11.869Z,11.2
2022-09-13T04:51:11.774Z,11.8
2022-09-13T04:53:12.503Z,11.4
2022-09-13T04:55:11.535Z,11.3
2022-09-13T04:59:12.517Z,11.3
2022-09-13T05:01:11.595Z,11.6
2022-09-13T05:03:12.502Z,11.4
2022-09-13T05:05:11.787Z,11.5
2022-09-13T05:07:11.994Z,11.5
2022-09-13T05:09:11.740Z,11.4
2022-09-13T05:11:15.200Z,11.4
2022-09-13T05:13:11.457Z,11.7
2022-09-13T05:15:11.906Z,11.4
2022-09-13T05:17:11.682Z,11.3
2022-09-13T05:19:11.806Z,11.4
2022-09-13T05:21:12.485Z,11.4
2022-09-13T05:25:12.040Z,12.3
2022-09-13T05:27:11.807Z,12.2
2022-09-13T05:29:12.497Z,12.2
2022-09-13T05:31:11.576Z,12
2022-09-13T05:33:14.646Z,11.9
2022-09-13T05:35:11.871Z,11.8
2022-09-13T05:39:29.465Z,12.4
2022-09-13T05:41:12.238Z,12.6
2022-09-13T05:43:11.938Z,12.2
2022-09-13T05:45:12.205Z,12
2022-09-13T05:47:11.760Z,12.1
2022-09-13T05:49:11.589Z,12
2022-09-13T05:51:15.037Z,12.1
2022-09-13T05:53:11.670Z,12.3
2022-09-13T05:57:11.800Z,12.8
2022-09-13T05:59:12.146Z,12.8
2022-09-13T06:01:11.970Z,12.9
2022-09-13T06:03:14.636Z,12.8
2022-09-13T06:05:12.153Z,12.9
2022-09-13T06:07:11.503Z,13
2022-09-13T06:09:14.317Z,13.4
2022-09-13T06:11:11.775Z,13.5
2022-09-13T06:13:11.673Z,13.5
2022-09-13T06:15:14.695Z,13.5
2022-09-13T06:17:14.339Z,13.5
2022-09-13T06:21:11.759Z,13.5
2022-09-13T06:23:11.679Z,13.7
2022-09-13T06:25:11.948Z,14
2022-09-13T06:27:14.622Z,13.7
2022-09-13T06:29:14.367Z,14.3
2022-09-13T06:31:14.160Z,14.5
2022-09-13T06:33:11.740Z,14.9
2022-09-13T06:35:12.822Z,17
2022-09-13T06:37:12.197Z,18
2022-09-13T06:39:12.459Z,18.4
2022-09-13T06:41:14.758Z,18.5
2022-09-13T06:43:11.505Z,18.5
2022-09-13T06:45:17.638Z,18.6
2022-09-13T06:47:14.773Z,18.7
2022-09-13T06:49:17.676Z,18.7
2022-09-13T06:51:14.723Z,18.7
2022-09-13T06:53:11.878Z,18.8
2022-09-13T06:55:12.736Z,18.9
2022-09-13T06:57:11.757Z,18.7
2022-09-13T06:59:11.714Z,18.2
2022-09-13T07:01:11.618Z,18.4
2022-09-13T07:05:14.780Z,17.8
2022-09-13T07:07:13.344Z,17.3
2022-09-13T07:09:11.758Z,17.7
2022-09-13T07:11:14.363Z,17.6
2022-09-13T07:13:11.513Z,17.3
2022-09-13T07:15:11.750Z,17.1
2022-09-13T07:17:11.705Z,17.4
2022-09-13T07:19:14.109Z,17
2022-09-13T07:21:14.356Z,17.1
2022-09-13T07:23:17.948Z,17
2022-09-13T07:25:16.231Z,17
2022-09-13T07:27:11.772Z,16.7
2022-09-13T07:29:14.803Z,17
2022-09-13T07:31:13.036Z,16.9
2022-09-13T07:33:16.385Z,17.1
2022-09-13T07:35:14.142Z,17.1
2022-09-13T07:37:12.243Z,17.3
2022-09-13T07:39:17.300Z,17.1
2022-09-13T07:41:12.076Z,17.4
2022-09-13T07:43:14.909Z,17.6
2022-09-13T07:45:11.760Z,17.7
2022-09-13T07:47:14.819Z,17.7
2022-09-13T07:49:12.015Z,18
2022-09-13T07:51:16.425Z,18.5
2022-09-13T07:53:11.706Z,18.1
2022-09-13T07:57:12.146Z,18.7
2022-09-13T07:59:12.582Z,18.9
2022-09-13T08:03:11.897Z,18.7
2022-09-13T08:05:11.806Z,19.2
2022-09-13T08:07:11.613Z,19.2
2022-09-13T08:09:11.890Z,19.2
2022-09-13T08:11:11.711Z,19.1
2022-09-13T08:13:11.517Z,19.3
2022-09-13T08:15:11.756Z,19.3
2022-09-13T08:17:12.203Z,19.4
2022-09-13T08:19:15.801Z,19.4
2022-09-13T08:21:11.761Z,19.4
2022-09-13T08:25:14.339Z,19.4
2022-09-13T08:27:12.192Z,19.4
2022-09-13T08:29:12.021Z,19.5
2022-09-13T08:31:12.139Z,19.6
2022-09-13T08:33:14.984Z,19.6
2022-09-13T08:35:12.089Z,19.7
2022-09-13T08:37:11.498Z,19.7
2022-09-13T08:39:11.780Z,19.9
2022-09-13T08:41:11.708Z,20
2022-09-13T08:43:11.499Z,20
2022-09-13T08:45:11.794Z,20
2022-09-13T08:47:11.710Z,20
2022-09-13T08:49:16.159Z,20
2022-09-13T08:51:11.773Z,20.1
2022-09-13T08:53:12.100Z,20.2
2022-09-13T08:55:11.522Z,20.3
2022-09-13T08:57:11.832Z,20.5
2022-09-13T08:59:11.746Z,20.4
2022-09-13T09:01:11.551Z,20.4
2022-09-13T09:03:11.757Z,20.4
2022-09-13T09:05:11.775Z,20.4
2022-09-13T09:07:11.509Z,20.5
2022-09-13T09:09:14.752Z,20.6
2022-09-13T09:11:11.734Z,20.6
2022-09-13T09:13:11.954Z,20.7
2022-09-13T09:15:14.744Z,20.7
2022-09-13T09:17:14.632Z,20.8
2022-09-13T09:19:15.024Z,20.8
2022-09-13T09:21:11.800Z,20.8
2022-09-13T09:23:11.871Z,20.8
2022-09-13T09:25:11.610Z,20.9
2022-09-13T09:27:11.857Z,20.9
2022-09-13T09:29:11.886Z,20.9
2022-09-13T09:31:11.690Z,21
2022-09-13T09:33:11.809Z,21
2022-09-13T09:35:11.762Z,21
2022-09-13T09:37:11.509Z,21
2022-09-13T09:39:11.815Z,21.1
2022-09-13T09:41:11.778Z,21.1
2022-09-13T09:43:12.262Z,21.1
2022-09-13T09:45:12.363Z,21.2
2022-09-13T09:47:11.755Z,21.2
2022-09-13T09:49:14.904Z,21
2022-09-13T09:51:11.896Z,21
2022-09-13T09:53:11.865Z,21.2
2022-09-13T09:55:11.638Z,21.3
2022-09-13T09:57:11.826Z,21.3
2022-09-13T09:59:11.944Z,21.4
2022-09-13T10:01:11.590Z,21.5
2022-09-13T10:03:11.783Z,21.5
2022-09-13T10:05:12.493Z,21.6
2022-09-13T10:07:15.692Z,21.6
2022-09-13T10:11:11.793Z,21.5
2022-09-13T10:13:11.613Z,21.4
2022-09-13T10:15:14.775Z,21.5
2022-09-13T10:17:11.751Z,21.6
2022-09-13T10:19:12.911Z,21.7
2022-09-13T10:21:11.876Z,21.7
2022-09-13T10:23:11.842Z,21.5
2022-09-13T10:25:11.526Z,21.5
2022-09-13T10:27:11.764Z,21.5
2022-09-13T10:31:14.911Z,21.6
2022-09-13T10:33:12.170Z,21.5
2022-09-13T10:35:12.210Z,21.5
2022-09-13T10:37:11.620Z,21.5
2022-09-13T10:39:11.854Z,21.4
2022-09-13T10:41:11.751Z,21.4
2022-09-13T10:43:12.250Z,21.4
2022-09-13T10:45:17.926Z,21.5
2022-09-13T10:47:12.861Z,21.5
2022-09-13T10:49:11.737Z,21.5
2022-09-13T10:51:11.766Z,21.5
2022-09-13T10:53:12.235Z,21.5
2022-09-13T10:55:11.620Z,21.5
2022-09-13T10:57:11.874Z,21.5
2022-09-13T10:59:11.761Z,21.5
2022-09-13T11:01:12.027Z,21.5
2022-09-13T11:03:11.889Z,21.5
2022-09-13T11:05:11.848Z,21.5
2022-09-13T11:09:11.880Z,21.4
2022-09-13T11:11:11.862Z,21.4
2022-09-13T11:15:12.522Z,21.5
2022-09-13T11:19:12.879Z,21.7
2022-09-13T11:21:14.846Z,21.8
2022-09-13T11:23:12.553Z,21.8
2022-09-13T11:25:11.578Z,21.8
2022-09-13T11:27:12.170Z,21.8
2022-09-13T11:29:12.540Z,21.7
2022-09-13T11:31:11.941Z,21.7
2022-09-13T11:33:11.883Z,21.7
2022-09-13T11:35:11.871Z,21.7
2022-09-13T11:37:15.092Z,21.7
2022-09-13T11:39:12.495Z,21.8
2022-09-13T11:41:19.591Z,21.8
2022-09-13T11:43:11.552Z,21.9
2022-09-13T11:45:12.244Z,21.9
2022-09-13T11:47:11.899Z,22
2022-09-13T11:49:12.232Z,22.1
2022-09-13T11:51:15.537Z,22.1
2022-09-13T11:53:11.773Z,22.2
2022-09-13T11:55:11.592Z,22.2
2022-09-13T11:57:11.779Z,22.2
2022-09-13T11:59:15.460Z,22.2
2022-09-13T12:01:11.563Z,22.3
2022-09-13T12:03:11.920Z,22.3
2022-09-13T12:05:21.923Z,22.4
2022-09-13T12:07:11.581Z,22.4
2022-09-13T12:09:11.780Z,22.4
2022-09-13T12:11:15.437Z,22.4
2022-09-13T12:13:11.534Z,22.5
2022-09-13T12:15:12.215Z,22.7
2022-09-13T12:17:12.355Z,22.8
2022-09-13T12:19:14.647Z,22.9
2022-09-13T12:21:11.774Z,22.8
2022-09-13T12:23:11.790Z,22.7
2022-09-13T12:25:11.993Z,22.7
2022-09-13T12:27:11.881Z,22.6
2022-09-13T12:29:12.251Z,22.6
2022-09-13T12:31:12.021Z,22.6
2022-09-13T12:33:12.537Z,22.6
2022-09-13T12:35:11.878Z,22.6
2022-09-13T12:37:12.426Z,22.6
2022-09-13T12:39:12.368Z,22.6
2022-09-13T12:43:11.552Z,22.6
2022-09-13T12:45:11.809Z,22.6
2022-09-13T12:47:11.787Z,22.6
2022-09-13T12:49:11.933Z,22.6
2022-09-13T12:51:11.894Z,22.6
2022-09-13T12:53:11.737Z,22.7
2022-09-13T12:55:23.952Z,22.7
2022-09-13T12:57:11.791Z,22.7
2022-09-13T12:59:11.752Z,22.8
2022-09-13T13:01:12.057Z,22.8
2022-09-13T13:05:11.798Z,22.9
2022-09-13T13:07:11.545Z,22.9
2022-09-13T13:09:11.779Z,23
2022-09-13T13:11:11.775Z,23.1
2022-09-13T13:15:11.808Z,23.1
2022-09-13T13:17:11.764Z,23
2022-09-13T13:19:12.014Z,22.9
2022-09-13T13:21:11.917Z,22.8
2022-09-13T13:23:15.907Z,22.8
2022-09-13T13:25:11.560Z,22.8
2022-09-13T13:27:11.804Z,22.7
2022-09-13T13:29:12.223Z,22.7
2022-09-13T13:31:11.888Z,22.7
2022-09-13T13:33:11.907Z,22.7
2022-09-13T13:35:11.891Z,22.7
2022-09-13T13:37:11.642Z,22.7
2022-09-13T13:39:11.882Z,22.7
2022-09-13T13:41:12.920Z,22.7
2022-09-13T13:43:12.001Z,22.8
2022-09-13T13:45:11.881Z,22.8
2022-09-13T13:47:12.547Z,22.9
2022-09-13T13:49:11.647Z,22.9
2022-09-13T13:51:11.811Z,23
2022-09-13T13:53:11.807Z,23
2022-09-13T13:55:11.592Z,23
2022-09-13T13:57:12.200Z,23
2022-09-13T13:59:11.776Z,22.9
2022-09-13T14:01:11.570Z,22.9
2022-09-13T14:05:12.539Z,22.8
2022-09-13T14:07:19.378Z,22.8
2022-09-13T14:09:11.896Z,22.7
2022-09-13T14:11:12.630Z,22.7
2022-09-13T14:13:12.278Z,22.7
2022-09-13T14:15:11.899Z,22.7
2022-09-13T14:17:11.955Z,22.7
2022-09-13T14:19:12.362Z,22.6
2022-09-13T14:21:11.882Z,22.6
2022-09-13T14:25:16.413Z,22.7
2022-09-13T14:29:11.883Z,22.7
2022-09-13T14:31:11.596Z,22.7
2022-09-13T14:33:11.807Z,22.7
2022-09-13T14:35:12.259Z,22.8
2022-09-13T14:37:11.664Z,22.8
2022-09-13T14:39:11.926Z,22.8
2022-09-13T14:41:11.862Z,22.8
2022-09-13T14:43:11.554Z,22.8
2022-09-13T14:45:12.281Z,22.8
2022-09-13T14:47:11.865Z,22.8
2022-09-13T14:49:11.589Z,22.7
2022-09-13T14:51:11.835Z,22.8
2022-09-13T14:53:11.781Z,22.8
2022-09-13T14:55:11.592Z,22.7
2022-09-13T14:57:12.250Z,22.7
2022-09-13T14:59:12.348Z,22.7
2022-09-13T15:01:12.115Z,22.7
2022-09-13T15:03:11.834Z,22.7
2022-09-13T15:05:11.802Z,22.7
2022-09-13T15:07:11.581Z,22.7
2022-09-13T15:09:11.788Z,22.7
2022-09-13T15:11:11.785Z,22.7
2022-09-13T15:13:12.351Z,22.7
2022-09-13T15:15:12.404Z,22.6
2022-09-13T15:17:12.543Z,22.6
2022-09-13T15:19:11.736Z,22.6
2022-09-13T15:21:11.908Z,22.6
2022-09-13T15:23:12.506Z,22.6
2022-09-13T15:27:11.805Z,22.5
2022-09-13T15:31:11.598Z,22.4
2022-09-13T15:33:12.531Z,22.4
2022-09-13T15:35:12.301Z,22.4
2022-09-13T15:37:11.579Z,22.4
2022-09-13T15:39:12.542Z,22.4
2022-09-13T15:41:11.845Z,22.4
2022-09-13T15:43:12.036Z,22.4
2022-09-13T15:45:11.840Z,22.4
2022-09-13T15:47:14.746Z,22.4
2022-09-13T15:49:14.407Z,22.4
2022-09-13T15:51:12.250Z,22.4
2022-09-13T15:53:12.302Z,22.4
2022-09-13T15:55:11.589Z,22.4
2022-09-13T15:57:12.299Z,22.4
2022-09-13T15:59:11.882Z,22.4
2022-09-13T16:01:11.759Z,22.4
2022-09-13T16:03:11.951Z,22.4
2022-09-13T16:05:19.242Z,22.4
2022-09-13T16:07:11.675Z,22.4
2022-09-13T16:09:11.947Z,22.4
2022-09-13T16:11:11.780Z,22.4
2022-09-13T16:13:12.019Z,22.4
2022-09-13T16:17:11.789Z,22.3
2022-09-13T16:19:11.906Z,22.3
2022-09-13T16:21:11.830Z,22.3
2022-09-13T16:23:14.823Z,22.3
2022-09-13T16:25:11.674Z,22.2
2022-09-13T16:27:11.941Z,22.2
2022-09-13T16:29:11.802Z,22.2
2022-09-13T16:31:14.944Z,22.2
2022-09-13T16:35:11.820Z,22.2
2022-09-13T16:37:11.583Z,22.1
2022-09-13T16:39:14.785Z,22.1
2022-09-13T16:41:17.962Z,22.1
2022-09-13T16:43:11.957Z,22.1
2022-09-13T16:45:14.688Z,22
2022-09-13T16:47:11.788Z,22
2022-09-13T16:49:11.599Z,22
2022-09-13T16:51:11.816Z,22
2022-09-13T16:53:11.817Z,22
2022-09-13T16:55:11.581Z,21.9
2022-09-13T16:57:12.222Z,21.9
2022-09-13T16:59:11.812Z,21.9
2022-09-13T17:03:12.057Z,21.8
2022-09-13T17:05:12.702Z,21.8
2022-09-13T17:07:11.592Z,21.8
2022-09-13T17:09:11.804Z,21.8
2022-09-13T17:11:11.838Z,21.8
2022-09-13T17:13:11.562Z,21.8
2022-09-13T17:15:11.838Z,21.8
2022-09-13T17:17:11.922Z,21.8
2022-09-13T17:19:11.712Z,21.6
2022-09-13T17:21:11.828Z,21.7
2022-09-13T17:23:12.907Z,21.6
2022-09-13T17:25:11.572Z,21.6
2022-09-13T17:27:11.843Z,21.5
2022-09-13T17:31:11.624Z,21.3
2022-09-13T17:33:11.822Z,21.3
2022-09-13T17:35:11.783Z,21.3
2022-09-13T17:39:11.858Z,21.3
2022-09-13T17:41:11.814Z,21.2
2022-09-13T17:43:11.593Z,21
2022-09-13T17:45:11.842Z,20.9
2022-09-13T17:47:11.790Z,20.8
2022-09-13T17:49:12.881Z,20.7
2022-09-13T17:51:11.828Z,20.7
2022-09-13T17:53:11.816Z,20.6
2022-09-13T17:55:15.602Z,20.7
2022-09-13T17:57:12.602Z,20.7
2022-09-13T18:03:11.852Z,20.6
2022-09-13T18:05:13.695Z,20.5
2022-09-13T18:07:17.530Z,20.5
2022-09-13T18:09:12.537Z,20.4
2022-09-13T18:11:13.491Z,20.4
2022-09-13T18:13:12.951Z,20.4
2022-09-13T18:15:14.677Z,20.4
2022-09-13T18:17:14.199Z,20.3
2022-09-13T18:21:14.776Z,20.3
2022-09-13T18:23:12.562Z,20.3
2022-09-13T18:25:12.913Z,20.3
2022-09-13T18:27:11.923Z,20.2
2022-09-13T18:29:12.090Z,20.2
2022-09-13T18:31:20.946Z,20.2
2022-09-13T18:33:11.822Z,20
2022-09-13T18:35:11.815Z,19.9
2022-09-13T18:37:14.151Z,20
2022-09-13T18:41:11.798Z,19.9
2022-09-13T18:43:14.439Z,19.8
2022-09-13T18:47:11.941Z,19.9
2022-09-13T18:49:14.898Z,19.9
2022-09-13T18:51:12.894Z,19.9
2022-09-13T18:53:11.820Z,19.8
2022-09-13T18:55:11.859Z,19.7
2022-09-13T18:57:11.874Z,19.7
2022-09-13T18:59:13.483Z,19.6
2022-09-13T19:01:11.882Z,19.5
2022-09-13T19:03:13.163Z,19.6
2022-09-13T19:07:14.458Z,19.6
2022-09-13T19:09:16.165Z,19.7
2022-09-13T19:11:29.380Z,19.7
2022-09-13T19:13:12.171Z,19.7
2022-09-13T19:15:13.366Z,19.6
2022-09-13T19:17:12.452Z,19.4
2022-09-13T19:19:11.999Z,19.4
2022-09-13T19:27:14.197Z,19.2
2022-09-13T19:29:14.870Z,19.2
2022-09-13T19:31:15.267Z,19.1
2022-09-13T19:33:11.892Z,19.2
2022-09-13T19:35:12.538Z,19.1
2022-09-13T19:39:12.603Z,19
2022-09-13T19:41:12.597Z,18.9
2022-09-13T19:43:14.784Z,18.9
2022-09-13T19:45:12.155Z,19
2022-09-13T19:49:11.737Z,19
2022-09-13T19:51:13.606Z,18.9
2022-09-13T19:53:12.119Z,18.9
2022-09-13T19:55:16.952Z,18.6
2022-09-13T19:57:11.901Z,18.4
2022-09-13T19:59:14.967Z,18.5
2022-09-13T20:01:12.127Z,18.7
2022-09-13T20:03:15.214Z,18.5
2022-09-13T20:05:19.286Z,18.4
2022-09-13T20:07:11.906Z,18.4
2022-09-13T20:09:11.874Z,18.5
2022-09-13T20:11:14.697Z,18.5
2022-09-13T20:13:12.925Z,18.4
2022-09-13T20:15:12.333Z,18.4
2022-09-13T20:17:14.358Z,18.4
2022-09-13T20:19:29.921Z,18.4
2022-09-13T20:21:17.605Z,18.4
2022-09-13T20:23:23.460Z,18.5
2022-09-13T20:25:11.895Z,18.4
2022-09-13T20:27:13.939Z,18.3
2022-09-13T20:29:11.948Z,18.1
2022-09-13T20:31:12.429Z,18
2022-09-13T20:33:24.605Z,18
2022-09-13T20:35:12.371Z,17.9
2022-09-13T20:37:14.486Z,17.8
2022-09-13T20:39:12.043Z,17.9
2022-09-13T20:41:12.991Z,17.9
2022-09-13T20:43:14.453Z,18
2022-09-13T20:45:15.777Z,18.1
2022-09-13T20:47:12.240Z,18.2
2022-09-13T20:49:12.041Z,18
2022-09-13T20:51:15.163Z,17.9
2022-09-13T20:53:14.479Z,17.9
2022-09-13T20:55:14.451Z,17.7
2022-09-13T20:57:17.559Z,17.6
2022-09-13T20:59:12.275Z,17.6
2022-09-13T21:01:12.109Z,17.5
2022-09-13T21:03:12.906Z,17.6
2022-09-13T21:05:11.839Z,17.6
2022-09-13T21:07:14.594Z,17.5
2022-09-13T21:09:11.963Z,17.4
2022-09-13T21:11:12.395Z,17.3
2022-09-13T21:13:12.344Z,17.3
2022-09-13T21:15:18.356Z,17.3
2022-09-13T21:17:17.607Z,17.4
2022-09-13T21:19:11.598Z,17.4
2022-09-13T21:21:11.860Z,17.4
2022-09-13T21:23:12.007Z,17.3
2022-09-13T21:25:11.717Z,17.3
2022-09-13T21:29:12.397Z,17.4
2022-09-13T21:31:18.299Z,17.6
2022-09-13T21:33:11.814Z,17.6
2022-09-13T21:35:11.823Z,17.6
2022-09-13T21:39:12.915Z,17.6
2022-09-13T21:41:11.861Z,17.6
2022-09-13T21:43:11.599Z,17.5
2022-09-13T21:47:12.171Z,17.3
2022-09-13T21:49:14.764Z,17.4
2022-09-13T21:51:11.860Z,17.4
2022-09-13T21:53:12.159Z,17.3
2022-09-13T21:55:11.704Z,17.3
2022-09-13T21:57:11.977Z,17.3
2022-09-13T21:59:11.920Z,17.4
2022-09-13T22:01:12.329Z,17.4
2022-09-13T22:03:11.973Z,17.6
2022-09-13T22:05:11.911Z,17.7
2022-09-13T22:07:11.704Z,17.8
2022-09-13T22:09:11.884Z,17.7
2022-09-13T22:11:14.450Z,17.6
2022-09-13T22:13:11.592Z,17.6
2022-09-13T22:15:12.223Z,17.6
2022-09-13T22:19:12.061Z,17.6
2022-09-13T22:21:12.121Z,17.6
2022-09-13T22:23:11.822Z,17.6
2022-09-13T22:25:11.627Z,17.5
2022-09-13T22:27:11.994Z,17.3
2022-09-13T22:29:12.013Z,17.3
2022-09-13T22:31:11.895Z,17.2
2022-09-13T22:33:11.960Z,17.1
2022-09-13T22:35:12.277Z,17
2022-09-13T22:37:11.609Z,17
2022-09-13T22:39:12.589Z,17.2
2022-09-13T22:43:12.918Z,17.3
2022-09-13T22:45:11.838Z,17.4
2022-09-13T22:47:11.811Z,17.6
2022-09-13T22:49:12.953Z,17.7
2022-09-13T22:51:20.919Z,17.7
2022-09-13T22:53:11.817Z,17.8
2022-09-13T22:55:12.002Z,17.7
2022-09-13T22:57:15.104Z,17.8
2022-09-13T22:59:12.274Z,17.9
2022-09-13T23:01:11.651Z,17.9
2022-09-13T23:03:11.902Z,18.1
2022-09-13T23:05:14.480Z,18.2
2022-09-13T23:07:11.613Z,18.5
2022-09-13T23:09:12.227Z,18.5
2022-09-13T23:11:11.826Z,18.8
2022-09-13T23:13:12.024Z,18.9
2022-09-13T23:15:11.951Z,18.9
2022-09-13T23:17:12.807Z,18.9
2022-09-13T23:19:11.646Z,18.9
2022-09-13T23:21:11.967Z,18.8
2022-09-13T23:23:11.820Z,18.8
2022-09-13T23:25:11.619Z,18.7
2022-09-13T23:27:14.777Z,18.7
2022-09-13T23:29:12.282Z,18.6
2022-09-13T23:33:11.859Z,18.5
2022-09-13T23:35:12.602Z,18.4
2022-09-13T23:37:12.919Z,18.1
2022-09-13T23:39:11.864Z,18.1
2022-09-13T23:41:12.300Z,18
2022-09-13T23:43:11.602Z,17.9
2022-09-13T23:45:12.942Z,17.9
2022-09-13T23:47:14.535Z,17.8
2022-09-13T23:49:12.072Z,17.7
2022-09-13T23:51:11.872Z,17.6
2022-09-13T23:53:11.913Z,17.6
2022-09-13T23:55:11.609Z,17.6
2022-09-13T23:57:14.723Z,17.6
2022-09-13T23:59:12.059Z,17.5
